sensor_id;sensor_type;location;lat;lon;timestamp;pressure;altitude;pressure_sealevel;temperature;humidity
60417;BME280;46263;44.726;10.396;2023-08-21T00:00:20;100925.16;;;31.02;51.21
60417;BME280;46263;44.726;10.396;2023-08-21T00:02:45;100931.09;;;30.91;51.35
60417;BME280;46263;44.726;10.396;2023-08-21T00:05:11;100923.47;;;30.82;51.84
60417;BME280;46263;44.726;10.396;2023-08-21T00:07:36;100929.34;;;30.84;51.80
60417;BME280;46263;44.726;10.396;2023-08-21T00:10:01;100924.50;;;30.88;51.65
60417;BME280;46263;44.726;10.396;2023-08-21T00:12:27;100927.38;;;30.88;51.80
60417;BME280;46263;44.726;10.396;2023-08-21T00:14:53;100927.28;;;30.71;52.10
60417;BME280;46263;44.726;10.396;2023-08-21T00:17:18;100921.44;;;30.69;52.55
60417;BME280;46263;44.726;10.396;2023-08-21T00:19:44;100920.78;;;30.71;52.28
60417;BME280;46263;44.726;10.396;2023-08-21T00:22:09;100922.25;;;30.56;52.59
60417;BME280;46263;44.726;10.396;2023-08-21T00:24:34;100912.94;;;30.58;52.61
60417;BME280;46263;44.726;10.396;2023-08-21T00:27:00;100913.78;;;30.60;52.27
60417;BME280;46263;44.726;10.396;2023-08-21T00:29:25;100906.78;;;30.65;52.57
60417;BME280;46263;44.726;10.396;2023-08-21T00:31:50;100915.81;;;30.73;52.30
60417;BME280;46263;44.726;10.396;2023-08-21T00:34:16;100915.16;;;30.75;52.24
60417;BME280;46263;44.726;10.396;2023-08-21T00:36:41;100921.50;;;30.71;52.27
60417;BME280;46263;44.726;10.396;2023-08-21T00:39:07;100916.84;;;30.64;52.45
60417;BME280;46263;44.726;10.396;2023-08-21T00:41:32;100913.59;;;30.56;52.20
60417;BME280;46263;44.726;10.396;2023-08-21T00:43:59;100920.13;;;30.57;52.30
60417;BME280;46263;44.726;10.396;2023-08-21T00:46:25;100921.66;;;30.44;52.92
60417;BME280;46263;44.726;10.396;2023-08-21T00:48:51;100911.91;;;30.51;52.56
60417;BME280;46263;44.726;10.396;2023-08-21T00:51:17;100912.03;;;30.53;52.61
60417;BME280;46263;44.726;10.396;2023-08-21T00:53:42;100922.16;;;30.54;52.71
60417;BME280;46263;44.726;10.396;2023-08-21T00:56:08;100910.53;;;30.52;52.31
60417;BME280;46263;44.726;10.396;2023-08-21T00:58:34;100912.25;;;30.44;52.27
60417;BME280;46263;44.726;10.396;2023-08-21T01:01:00;100921.38;;;30.38;53.04
60417;BME280;46263;44.726;10.396;2023-08-21T01:03:25;100920.03;;;30.26;52.88
60417;BME280;46263;44.726;10.396;2023-08-21T01:05:51;100920.31;;;30.16;53.21
60417;BME280;46263;44.726;10.396;2023-08-21T01:11:15;100918.31;;;30.05;53.95
60417;BME280;46263;44.726;10.396;2023-08-21T01:14:07;100918.44;;;30.07;53.85
60417;BME280;46263;44.726;10.396;2023-08-21T01:16:33;100915.03;;;29.97;53.88
60417;BME280;46263;44.726;10.396;2023-08-21T01:19:01;100919.13;;;29.93;54.26
60417;BME280;46263;44.726;10.396;2023-08-21T01:21:27;100920.50;;;29.92;54.28
60417;BME280;46263;44.726;10.396;2023-08-21T01:23:52;100924.75;;;29.91;54.10
60417;BME280;46263;44.726;10.396;2023-08-21T01:26:18;100919.97;;;29.95;54.21
60417;BME280;46263;44.726;10.396;2023-08-21T01:28:43;100926.16;;;29.90;54.11
60417;BME280;46263;44.726;10.396;2023-08-21T01:31:20;100927.78;;;29.93;54.34
60417;BME280;46263;44.726;10.396;2023-08-21T01:33:51;100923.94;;;29.88;54.19
60417;BME280;46263;44.726;10.396;2023-08-21T01:36:20;100927.53;;;29.89;54.61
60417;BME280;46263;44.726;10.396;2023-08-21T01:38:46;100932.16;;;29.94;54.43
60417;BME280;46263;44.726;10.396;2023-08-21T01:41:12;100926.91;;;30.03;53.91
60417;BME280;46263;44.726;10.396;2023-08-21T01:43:37;100929.31;;;30.09;53.73
60417;BME280;46263;44.726;10.396;2023-08-21T01:46:03;100937.34;;;30.10;53.93
60417;BME280;46263;44.726;10.396;2023-08-21T01:48:29;100926.34;;;30.07;53.73
60417;BME280;46263;44.726;10.396;2023-08-21T01:50:54;100921.88;;;30.04;53.35
60417;BME280;46263;44.726;10.396;2023-08-21T01:53:20;100929.56;;;29.99;53.56
60417;BME280;46263;44.726;10.396;2023-08-21T01:55:45;100926.69;;;29.99;53.50
60417;BME280;46263;44.726;10.396;2023-08-21T01:58:10;100929.56;;;29.99;53.33
60417;BME280;46263;44.726;10.396;2023-08-21T02:00:36;100933.06;;;30.11;53.24
60417;BME280;46263;44.726;10.396;2023-08-21T02:03:01;100934.00;;;30.16;53.17
60417;BME280;46263;44.726;10.396;2023-08-21T02:05:27;100930.47;;;30.17;52.99
60417;BME280;46263;44.726;10.396;2023-08-21T02:07:52;100930.19;;;30.11;53.25
60417;BME280;46263;44.726;10.396;2023-08-21T02:10:18;100924.31;;;30.09;53.24
60417;BME280;46263;44.726;10.396;2023-08-21T02:12:43;100934.34;;;30.08;53.24
60417;BME280;46263;44.726;10.396;2023-08-21T02:15:09;100929.56;;;29.99;53.71
60417;BME280;46263;44.726;10.396;2023-08-21T02:17:35;100934.69;;;30.01;53.95
60417;BME280;46263;44.726;10.396;2023-08-21T02:20:00;100937.13;;;30.06;53.50
60417;BME280;46263;44.726;10.396;2023-08-21T02:22:26;100939.16;;;30.04;53.86
60417;BME280;46263;44.726;10.396;2023-08-21T02:24:53;100943.66;;;30.07;53.86
60417;BME280;46263;44.726;10.396;2023-08-21T02:27:19;100935.56;;;30.03;54.22
60417;BME280;46263;44.726;10.396;2023-08-21T02:29:44;100932.66;;;30.03;54.01
60417;BME280;46263;44.726;10.396;2023-08-21T02:32:09;100934.78;;;30.03;54.43
60417;BME280;46263;44.726;10.396;2023-08-21T02:34:35;100934.16;;;30.04;54.64
60417;BME280;46263;44.726;10.396;2023-08-21T02:37:01;100927.63;;;30.04;54.15
60417;BME280;46263;44.726;10.396;2023-08-21T02:39:26;100932.19;;;30.09;53.84
60417;BME280;46263;44.726;10.396;2023-08-21T02:41:51;100938.22;;;29.99;53.84
60417;BME280;46263;44.726;10.396;2023-08-21T02:44:17;100945.19;;;29.95;54.20
60417;BME280;46263;44.726;10.396;2023-08-21T02:46:42;100940.28;;;29.97;54.62
60417;BME280;46263;44.726;10.396;2023-08-21T02:49:08;100935.16;;;29.96;54.43
60417;BME280;46263;44.726;10.396;2023-08-21T02:51:33;100931.94;;;29.90;54.98
60417;BME280;46263;44.726;10.396;2023-08-21T02:53:58;100931.09;;;29.87;54.67
60417;BME280;46263;44.726;10.396;2023-08-21T02:56:24;100939.09;;;29.89;54.36
60417;BME280;46263;44.726;10.396;2023-08-21T02:58:49;100937.94;;;29.94;54.55
60417;BME280;46263;44.726;10.396;2023-08-21T03:01:15;100930.66;;;29.93;54.73
60417;BME280;46263;44.726;10.396;2023-08-21T03:03:40;100936.13;;;29.87;55.03
60417;BME280;46263;44.726;10.396;2023-08-21T03:06:06;100932.91;;;29.81;54.58
60417;BME280;46263;44.726;10.396;2023-08-21T03:08:31;100934.41;;;29.82;54.29
60417;BME280;46263;44.726;10.396;2023-08-21T03:10:57;100950.44;;;29.85;54.57
60417;BME280;46263;44.726;10.396;2023-08-21T03:13:22;100940.00;;;29.78;54.67
60417;BME280;46263;44.726;10.396;2023-08-21T03:15:47;100935.50;;;29.75;54.48
60417;BME280;46263;44.726;10.396;2023-08-21T03:18:13;100934.94;;;29.78;55.16
60417;BME280;46263;44.726;10.396;2023-08-21T03:20:44;100938.28;;;29.73;54.87
60417;BME280;46263;44.726;10.396;2023-08-21T03:23:09;100930.81;;;29.68;54.43
60417;BME280;46263;44.726;10.396;2023-08-21T03:25:35;100935.09;;;29.67;55.27
60417;BME280;46263;44.726;10.396;2023-08-21T03:28:00;100930.41;;;29.60;55.37
60417;BME280;46263;44.726;10.396;2023-08-21T03:30:25;100935.53;;;29.61;54.72
60417;BME280;46263;44.726;10.396;2023-08-21T03:32:51;100931.38;;;29.64;54.57
60417;BME280;46263;44.726;10.396;2023-08-21T03:35:16;100927.84;;;29.66;54.96
60417;BME280;46263;44.726;10.396;2023-08-21T03:37:42;100934.97;;;29.65;55.45
60417;BME280;46263;44.726;10.396;2023-08-21T03:40:07;100925.81;;;29.68;55.49
60417;BME280;46263;44.726;10.396;2023-08-21T03:42:33;100927.25;;;29.54;55.00
60417;BME280;46263;44.726;10.396;2023-08-21T03:44:58;100928.81;;;29.57;54.82
60417;BME280;46263;44.726;10.396;2023-08-21T03:47:24;100922.75;;;29.51;55.46
60417;BME280;46263;44.726;10.396;2023-08-21T03:49:49;100932.03;;;29.49;55.76
60417;BME280;46263;44.726;10.396;2023-08-21T03:52:14;100923.28;;;29.47;55.43
60417;BME280;46263;44.726;10.396;2023-08-21T03:54:40;100927.78;;;29.50;55.30
60417;BME280;46263;44.726;10.396;2023-08-21T03:57:05;100924.25;;;29.52;55.29
60417;BME280;46263;44.726;10.396;2023-08-21T03:59:32;100929.06;;;29.47;55.27
60417;BME280;46263;44.726;10.396;2023-08-21T04:01:57;100928.31;;;29.33;55.39
60417;BME280;46263;44.726;10.396;2023-08-21T04:04:23;100928.63;;;29.26;55.42
60417;BME280;46263;44.726;10.396;2023-08-21T04:06:48;100918.06;;;29.17;55.58
60417;BME280;46263;44.726;10.396;2023-08-21T04:09:14;100922.66;;;29.22;55.52
60417;BME280;46263;44.726;10.396;2023-08-21T04:11:40;100927.88;;;29.25;55.46
60417;BME280;46263;44.726;10.396;2023-08-21T04:14:06;100937.59;;;29.32;56.15
60417;BME280;46263;44.726;10.396;2023-08-21T04:16:31;100937.69;;;29.34;56.10
60417;BME280;46263;44.726;10.396;2023-08-21T04:18:57;100932.69;;;29.34;55.80
60417;BME280;46263;44.726;10.396;2023-08-21T04:21:23;100946.25;;;29.45;55.33
60417;BME280;46263;44.726;10.396;2023-08-21T04:23:48;100940.94;;;29.40;55.31
60417;BME280;46263;44.726;10.396;2023-08-21T04:26:13;100940.94;;;29.40;55.55
60417;BME280;46263;44.726;10.396;2023-08-21T04:28:39;100944.31;;;29.36;56.09
60417;BME280;46263;44.726;10.396;2023-08-21T04:31:07;100950.50;;;29.31;56.14
60417;BME280;46263;44.726;10.396;2023-08-21T04:33:33;100952.75;;;29.19;56.69
60417;BME280;46263;44.726;10.396;2023-08-21T04:35:59;100954.13;;;29.18;56.74
60417;BME280;46263;44.726;10.396;2023-08-21T04:38:25;100948.78;;;29.12;57.29
60417;BME280;46263;44.726;10.396;2023-08-21T04:40:51;100947.41;;;29.13;57.02
60417;BME280;46263;44.726;10.396;2023-08-21T04:43:16;100956.59;;;29.10;57.67
60417;BME280;46263;44.726;10.396;2023-08-21T04:45:49;100956.81;;;29.14;57.04
60417;BME280;46263;44.726;10.396;2023-08-21T04:48:18;100955.19;;;29.11;57.31
60417;BME280;46263;44.726;10.396;2023-08-21T04:50:45;100966.19;;;29.14;57.07
60417;BME280;46263;44.726;10.396;2023-08-21T04:53:10;100961.81;;;29.13;57.10
60417;BME280;46263;44.726;10.396;2023-08-21T04:55:36;100959.25;;;29.06;57.78
60417;BME280;46263;44.726;10.396;2023-08-21T04:58:02;100962.22;;;29.08;57.77
60417;BME280;46263;44.726;10.396;2023-08-21T05:00:27;100963.63;;;29.07;57.97
60417;BME280;46263;44.726;10.396;2023-08-21T05:02:53;100964.38;;;29.08;58.16
60417;BME280;46263;44.726;10.396;2023-08-21T05:05:18;100971.94;;;29.14;57.28
60417;BME280;46263;44.726;10.396;2023-08-21T05:07:44;100972.72;;;29.15;56.87
60417;BME280;46263;44.726;10.396;2023-08-21T05:10:09;100969.19;;;29.16;56.58
60417;BME280;46263;44.726;10.396;2023-08-21T05:12:35;100970.34;;;29.25;57.01
60417;BME280;46263;44.726;10.396;2023-08-21T05:15:00;100972.91;;;29.19;57.30
60417;BME280;46263;44.726;10.396;2023-08-21T05:17:25;100977.28;;;29.20;57.28
60417;BME280;46263;44.726;10.396;2023-08-21T05:19:52;100970.25;;;29.23;57.71
60417;BME280;46263;44.726;10.396;2023-08-21T05:22:17;100977.59;;;29.26;57.23
60417;BME280;46263;44.726;10.396;2023-08-21T05:24:43;100978.44;;;29.28;57.39
60417;BME280;46263;44.726;10.396;2023-08-21T05:27:08;100976.88;;;29.25;57.14
60417;BME280;46263;44.726;10.396;2023-08-21T05:29:34;100985.09;;;29.31;56.41
60417;BME280;46263;44.726;10.396;2023-08-21T05:32:00;100990.63;;;29.27;56.33
60417;BME280;46263;44.726;10.396;2023-08-21T05:34:25;100989.34;;;29.30;57.94
60417;BME280;46263;44.726;10.396;2023-08-21T05:36:51;100989.56;;;29.34;58.04
60417;BME280;46263;44.726;10.396;2023-08-21T05:39:19;100985.53;;;29.39;57.42
60417;BME280;46263;44.726;10.396;2023-08-21T05:41:45;100989.28;;;29.41;57.50
60417;BME280;46263;44.726;10.396;2023-08-21T05:44:10;100992.25;;;29.43;57.90
60417;BME280;46263;44.726;10.396;2023-08-21T05:46:36;100995.34;;;29.47;57.38
60417;BME280;46263;44.726;10.396;2023-08-21T05:49:01;100999.00;;;29.48;56.64
60417;BME280;46263;44.726;10.396;2023-08-21T05:51:27;100995.78;;;29.42;55.62
60417;BME280;46263;44.726;10.396;2023-08-21T05:53:52;100996.94;;;29.50;56.22
60417;BME280;46263;44.726;10.396;2023-08-21T05:56:17;100987.75;;;29.54;56.51
60417;BME280;46263;44.726;10.396;2023-08-21T05:58:43;100993.53;;;29.54;55.55
60417;BME280;46263;44.726;10.396;2023-08-21T06:01:08;100993.72;;;29.58;55.05
60417;BME280;46263;44.726;10.396;2023-08-21T06:03:33;100995.34;;;29.61;55.02
60417;BME280;46263;44.726;10.396;2023-08-21T06:05:59;100996.28;;;29.65;54.81
60417;BME280;46263;44.726;10.396;2023-08-21T06:08:24;100997.44;;;29.74;55.20
60417;BME280;46263;44.726;10.396;2023-08-21T06:10:51;101000.25;;;29.72;55.85
60417;BME280;46263;44.726;10.396;2023-08-21T06:13:17;100999.78;;;29.77;55.93
60417;BME280;46263;44.726;10.396;2023-08-21T06:15:43;100997.84;;;29.82;56.64
60417;BME280;46263;44.726;10.396;2023-08-21T06:18:10;100995.19;;;29.86;55.92
60417;BME280;46263;44.726;10.396;2023-08-21T06:20:36;101008.00;;;29.96;56.32
60417;BME280;46263;44.726;10.396;2023-08-21T06:23:01;101005.34;;;30.00;55.49
60417;BME280;46263;44.726;10.396;2023-08-21T06:25:27;101001.16;;;29.90;55.58
60417;BME280;46263;44.726;10.396;2023-08-21T06:27:52;100994.88;;;29.80;56.12
60417;BME280;46263;44.726;10.396;2023-08-21T06:30:18;101000.44;;;29.76;56.64
60417;BME280;46263;44.726;10.396;2023-08-21T06:32:44;100998.53;;;29.67;56.66
60417;BME280;46263;44.726;10.396;2023-08-21T06:35:09;100999.50;;;29.58;57.57
60417;BME280;46263;44.726;10.396;2023-08-21T06:37:35;101007.16;;;29.67;57.46
60417;BME280;46263;44.726;10.396;2023-08-21T06:40:00;101009.22;;;29.64;57.87
60417;BME280;46263;44.726;10.396;2023-08-21T06:42:26;101017.59;;;29.87;56.98
60417;BME280;46263;44.726;10.396;2023-08-21T06:44:51;101007.69;;;30.03;56.89
60417;BME280;46263;44.726;10.396;2023-08-21T06:47:17;101011.72;;;29.98;57.50
60417;BME280;46263;44.726;10.396;2023-08-21T06:49:42;101016.91;;;30.15;57.22
60417;BME280;46263;44.726;10.396;2023-08-21T06:52:07;101014.81;;;30.31;56.31
60417;BME280;46263;44.726;10.396;2023-08-21T06:54:33;101014.59;;;30.41;56.46
60417;BME280;46263;44.726;10.396;2023-08-21T06:56:59;101006.84;;;30.45;56.64
60417;BME280;46263;44.726;10.396;2023-08-21T06:59:24;101016.53;;;30.36;56.37
60417;BME280;46263;44.726;10.396;2023-08-21T07:01:49;101011.50;;;30.37;56.93
60417;BME280;46263;44.726;10.396;2023-08-21T07:04:16;101007.38;;;30.26;57.42
60417;BME280;46263;44.726;10.396;2023-08-21T07:06:42;101005.78;;;30.23;57.05
60417;BME280;46263;44.726;10.396;2023-08-21T07:09:07;101013.25;;;30.28;56.96
60417;BME280;46263;44.726;10.396;2023-08-21T07:11:33;101015.22;;;30.39;56.42
60417;BME280;46263;44.726;10.396;2023-08-21T07:13:58;101009.53;;;30.55;56.42
60417;BME280;46263;44.726;10.396;2023-08-21T07:16:24;101012.53;;;30.72;55.82
60417;BME280;46263;44.726;10.396;2023-08-21T07:18:51;101012.06;;;30.77;56.17
60417;BME280;46263;44.726;10.396;2023-08-21T07:21:17;101014.59;;;30.85;56.36
60417;BME280;46263;44.726;10.396;2023-08-21T07:23:42;101014.69;;;30.87;55.83
60417;BME280;46263;44.726;10.396;2023-08-21T07:26:08;101011.44;;;30.94;55.52
60417;BME280;46263;44.726;10.396;2023-08-21T07:28:33;101011.16;;;31.04;55.56
60417;BME280;46263;44.726;10.396;2023-08-21T07:30:59;101013.69;;;31.11;55.63
60417;BME280;46263;44.726;10.396;2023-08-21T07:33:26;101011.84;;;31.18;54.89
60417;BME280;46263;44.726;10.396;2023-08-21T07:36:02;101009.78;;;31.20;54.95
60417;BME280;46263;44.726;10.396;2023-08-21T07:38:28;101012.00;;;31.22;54.79
60417;BME280;46263;44.726;10.396;2023-08-21T07:43:29;101010.63;;;31.23;53.61
60417;BME280;46263;44.726;10.396;2023-08-21T07:45:54;101015.25;;;31.30;54.51
60417;BME280;46263;44.726;10.396;2023-08-21T07:48:19;101015.63;;;31.38;54.19
60417;BME280;46263;44.726;10.396;2023-08-21T07:50:52;101013.75;;;31.44;54.08
60417;BME280;46263;44.726;10.396;2023-08-21T07:53:20;101011.59;;;31.45;54.36
60417;BME280;46263;44.726;10.396;2023-08-21T07:55:46;101004.81;;;31.54;53.34
60417;BME280;46263;44.726;10.396;2023-08-21T07:58:13;101011.59;;;31.60;53.48
60417;BME280;46263;44.726;10.396;2023-08-21T08:00:38;101013.94;;;31.63;53.39
60417;BME280;46263;44.726;10.396;2023-08-21T08:03:04;101011.03;;;31.63;52.91
60417;BME280;46263;44.726;10.396;2023-08-21T08:05:31;101020.63;;;31.68;53.12
60417;BME280;46263;44.726;10.396;2023-08-21T08:07:56;101012.06;;;31.70;53.10
60417;BME280;46263;44.726;10.396;2023-08-21T08:10:23;101009.16;;;31.70;53.26
60417;BME280;46263;44.726;10.396;2023-08-21T08:12:49;101009.31;;;31.74;53.38
60417;BME280;46263;44.726;10.396;2023-08-21T08:15:14;101011.75;;;31.79;52.86
60417;BME280;46263;44.726;10.396;2023-08-21T08:17:40;101016.94;;;31.83;51.99
60417;BME280;46263;44.726;10.396;2023-08-21T08:20:06;101012.75;;;31.86;51.54
60417;BME280;46263;44.726;10.396;2023-08-21T08:22:31;101015.81;;;31.90;51.79
60417;BME280;46263;44.726;10.396;2023-08-21T08:24:57;101011.50;;;31.91;51.50
60417;BME280;46263;44.726;10.396;2023-08-21T08:27:22;101018.94;;;31.96;51.38
60417;BME280;46263;44.726;10.396;2023-08-21T08:29:49;101016.91;;;31.98;51.04
60417;BME280;46263;44.726;10.396;2023-08-21T08:32:14;101018.56;;;32.03;51.41
60417;BME280;46263;44.726;10.396;2023-08-21T08:34:40;101007.34;;;32.11;51.29
60417;BME280;46263;44.726;10.396;2023-08-21T08:37:05;101009.56;;;32.13;51.46
60417;BME280;46263;44.726;10.396;2023-08-21T08:39:30;101010.47;;;32.17;50.88
60417;BME280;46263;44.726;10.396;2023-08-21T08:41:58;101009.16;;;32.20;50.36
60417;BME280;46263;44.726;10.396;2023-08-21T08:44:29;101010.72;;;32.23;50.29
60417;BME280;46263;44.726;10.396;2023-08-21T08:46:56;101005.03;;;32.25;49.55
60417;BME280;46263;44.726;10.396;2023-08-21T08:49:24;101006.69;;;32.30;49.17
60417;BME280;46263;44.726;10.396;2023-08-21T08:51:50;101003.81;;;32.30;49.34
60417;BME280;46263;44.726;10.396;2023-08-21T08:54:17;101001.81;;;32.35;48.40
60417;BME280;46263;44.726;10.396;2023-08-21T08:56:43;100998.97;;;32.37;48.03
60417;BME280;46263;44.726;10.396;2023-08-21T08:59:09;101005.75;;;32.43;48.75
60417;BME280;46263;44.726;10.396;2023-08-21T09:01:34;101001.47;;;32.44;48.20
60417;BME280;46263;44.726;10.396;2023-08-21T09:04:01;100998.72;;;32.48;48.19
60417;BME280;46263;44.726;10.396;2023-08-21T09:06:26;100995.19;;;32.49;49.38
60417;BME280;46263;44.726;10.396;2023-08-21T09:08:56;100990.94;;;32.52;48.15
60417;BME280;46263;44.726;10.396;2023-08-21T09:11:22;100994.59;;;32.53;47.45
60417;BME280;46263;44.726;10.396;2023-08-21T09:13:53;100994.50;;;32.51;46.86
60417;BME280;46263;44.726;10.396;2023-08-21T09:16:19;100991.22;;;32.58;47.21
60417;BME280;46263;44.726;10.396;2023-08-21T09:18:55;101000.81;;;32.63;46.59
60417;BME280;46263;44.726;10.396;2023-08-21T09:21:25;100995.84;;;32.65;46.40
60417;BME280;46263;44.726;10.396;2023-08-21T09:24:00;100992.38;;;32.69;46.24
60417;BME280;46263;44.726;10.396;2023-08-21T09:26:30;100988.78;;;32.70;45.34
60417;BME280;46263;44.726;10.396;2023-08-21T09:28:58;100993.31;;;32.75;46.31
60417;BME280;46263;44.726;10.396;2023-08-21T09:31:30;100981.16;;;32.79;45.68
60417;BME280;46263;44.726;10.396;2023-08-21T09:33:59;100981.16;;;32.79;44.40
60417;BME280;46263;44.726;10.396;2023-08-21T09:36:26;100982.88;;;32.86;44.89
60417;BME280;46263;44.726;10.396;2023-08-21T09:38:52;100973.59;;;32.89;45.63
60417;BME280;46263;44.726;10.396;2023-08-21T09:41:22;100979.63;;;32.95;47.05
60417;BME280;46263;44.726;10.396;2023-08-21T09:43:47;100967.44;;;32.99;46.15
60417;BME280;46263;44.726;10.396;2023-08-21T09:46:31;100964.63;;;33.01;46.24
60417;BME280;46263;44.726;10.396;2023-08-21T09:48:56;100960.34;;;33.04;46.40
60417;BME280;46263;44.726;10.396;2023-08-21T09:51:22;100959.03;;;33.07;47.40
60417;BME280;46263;44.726;10.396;2023-08-21T09:53:48;100959.16;;;33.09;46.17
60417;BME280;46263;44.726;10.396;2023-08-21T09:56:15;100954.91;;;33.12;46.37
60417;BME280;46263;44.726;10.396;2023-08-21T09:58:44;100956.66;;;33.21;44.69
60417;BME280;46263;44.726;10.396;2023-08-21T10:01:11;100942.25;;;33.23;45.03
60417;BME280;46263;44.726;10.396;2023-08-21T10:03:41;100951.25;;;33.30;46.25
60417;BME280;46263;44.726;10.396;2023-08-21T10:06:11;100944.19;;;33.35;45.51
60417;BME280;46263;44.726;10.396;2023-08-21T10:08:39;100939.13;;;33.36;45.71
60417;BME280;46263;44.726;10.396;2023-08-21T10:11:08;100948.72;;;33.40;45.67
60417;BME280;46263;44.726;10.396;2023-08-21T10:13:36;100941.56;;;33.43;45.89
60417;BME280;46263;44.726;10.396;2023-08-21T10:16:02;100943.13;;;33.46;46.37
60417;BME280;46263;44.726;10.396;2023-08-21T10:18:33;100944.75;;;33.51;44.34
60417;BME280;46263;44.726;10.396;2023-08-21T10:21:25;100944.75;;;33.51;43.99
60417;BME280;46263;44.726;10.396;2023-08-21T10:23:54;100944.31;;;33.59;45.61
60417;BME280;46263;44.726;10.396;2023-08-21T10:26:21;100946.69;;;33.64;46.04
60417;BME280;46263;44.726;10.396;2023-08-21T10:29:00;100935.19;;;33.68;44.30
60417;BME280;46263;44.726;10.396;2023-08-21T10:31:39;100931.75;;;33.74;44.46
60417;BME280;46263;44.726;10.396;2023-08-21T10:34:11;100931.16;;;33.77;44.05
60417;BME280;46263;44.726;10.396;2023-08-21T10:39:22;100931.56;;;33.89;43.77
60417;BME280;46263;44.726;10.396;2023-08-21T10:49:42;100927.53;;;33.98;42.98
60417;BME280;46263;44.726;10.396;2023-08-21T10:52:09;100928.41;;;34.03;45.22
60417;BME280;46263;44.726;10.396;2023-08-21T10:54:48;100922.66;;;34.05;43.64
60417;BME280;46263;44.726;10.396;2023-08-21T10:57:14;100917.69;;;34.07;44.60
60417;BME280;46263;44.726;10.396;2023-08-21T10:59:54;100920.72;;;34.11;44.04
60417;BME280;46263;44.726;10.396;2023-08-21T11:02:20;100912.06;;;34.13;43.52
60417;BME280;46263;44.726;10.396;2023-08-21T11:04:45;100919.47;;;34.18;41.67
60417;BME280;46263;44.726;10.396;2023-08-21T11:07:11;100915.97;;;34.21;42.62
60417;BME280;46263;44.726;10.396;2023-08-21T11:09:38;100916.81;;;34.26;43.60
60417;BME280;46263;44.726;10.396;2023-08-21T11:12:08;100913.88;;;34.24;41.80
60417;BME280;46263;44.726;10.396;2023-08-21T11:14:34;100910.22;;;34.23;42.23
60417;BME280;46263;44.726;10.396;2023-08-21T11:17:00;100906.03;;;34.28;42.99
60417;BME280;46263;44.726;10.396;2023-08-21T11:19:26;100905.34;;;34.30;43.87
60417;BME280;46263;44.726;10.396;2023-08-21T11:21:51;100900.41;;;34.34;43.28
60417;BME280;46263;44.726;10.396;2023-08-21T11:24:17;100898.16;;;34.33;41.48
60417;BME280;46263;44.726;10.396;2023-08-21T11:26:42;100899.53;;;34.30;41.38
60417;BME280;46263;44.726;10.396;2023-08-21T11:29:08;100897.31;;;34.28;41.28
60417;BME280;46263;44.726;10.396;2023-08-21T11:31:33;100888.84;;;34.36;43.55
60417;BME280;46263;44.726;10.396;2023-08-21T11:33:59;100892.66;;;34.43;43.50
60417;BME280;46263;44.726;10.396;2023-08-21T11:36:24;100891.44;;;34.50;42.12
60417;BME280;46263;44.726;10.396;2023-08-21T11:39:00;100891.75;;;34.60;43.35
60417;BME280;46263;44.726;10.396;2023-08-21T11:41:26;100902.09;;;34.65;41.01
60417;BME280;46263;44.726;10.396;2023-08-21T11:43:51;100890.66;;;34.71;42.33
60417;BME280;46263;44.726;10.396;2023-08-21T11:46:18;100895.66;;;34.68;41.13
60417;BME280;46263;44.726;10.396;2023-08-21T11:48:44;100891.50;;;34.75;41.47
60417;BME280;46263;44.726;10.396;2023-08-21T11:51:10;100887.91;;;34.77;40.62
60417;BME280;46263;44.726;10.396;2023-08-21T11:53:41;100887.22;;;34.78;40.47
60417;BME280;46263;44.726;10.396;2023-08-21T11:56:16;100879.97;;;34.79;41.13
60417;BME280;46263;44.726;10.396;2023-08-21T11:58:44;100886.47;;;34.78;40.54
60417;BME280;46263;44.726;10.396;2023-08-21T12:01:20;100881.59;;;34.84;42.50
60417;BME280;46263;44.726;10.396;2023-08-21T12:03:46;100878.78;;;34.88;40.38
60417;BME280;46263;44.726;10.396;2023-08-21T12:06:12;100876.56;;;34.87;40.18
60417;BME280;46263;44.726;10.396;2023-08-21T12:08:38;100872.28;;;34.90;40.63
60417;BME280;46263;44.726;10.396;2023-08-21T12:11:04;100872.25;;;34.88;40.50
60417;BME280;46263;44.726;10.396;2023-08-21T12:13:30;100872.50;;;34.97;41.77
60417;BME280;46263;44.726;10.396;2023-08-21T12:15:56;100868.22;;;35.00;41.49
60417;BME280;46263;44.726;10.396;2023-08-21T12:18:22;100865.47;;;35.04;40.40
60417;BME280;46263;44.726;10.396;2023-08-21T12:20:48;100869.28;;;35.11;41.26
60417;BME280;46263;44.726;10.396;2023-08-21T12:23:14;100862.03;;;35.12;39.99
60417;BME280;46263;44.726;10.396;2023-08-21T12:25:39;100861.38;;;35.13;39.89
60417;BME280;46263;44.726;10.396;2023-08-21T12:28:05;100861.38;;;35.13;41.58
60417;BME280;46263;44.726;10.396;2023-08-21T12:30:31;100865.78;;;35.16;40.72
60417;BME280;46263;44.726;10.396;2023-08-21T12:32:56;100865.84;;;35.18;40.93
60417;BME280;46263;44.726;10.396;2023-08-21T12:35:22;100860.94;;;35.25;40.43
60417;BME280;46263;44.726;10.396;2023-08-21T12:37:48;100855.97;;;35.29;41.69
60417;BME280;46263;44.726;10.396;2023-08-21T12:40:13;100850.75;;;35.26;40.34
60417;BME280;46263;44.726;10.396;2023-08-21T12:42:39;100856.00;;;35.31;40.71
60417;BME280;46263;44.726;10.396;2023-08-21T12:45:04;100854.66;;;35.34;39.95
60417;BME280;46263;44.726;10.396;2023-08-21T12:47:30;100855.50;;;35.39;41.61
60417;BME280;46263;44.726;10.396;2023-08-21T12:49:55;100846.13;;;35.42;41.51
60417;BME280;46263;44.726;10.396;2023-08-21T12:52:21;100849.81;;;35.45;40.65